sensor_id;sensor_type;location;lat;lon;timestamp;P1;durP1;ratioP1;P2;durP2;ratioP2
70707;SDS011;58277;47.316;18.908;2024-03-08T00:01:20;18.55;;;8.30;;
70707;SDS011;58277;47.316;18.908;2024-03-08T00:03:42;17.53;;;8.00;;
70707;SDS011;58277;47.316;18.908;2024-03-08T00:06:05;19.48;;;8.10;;
70707;SDS011;58277;47.316;18.908;2024-03-08T00:08:29;18.17;;;8.52;;
70707;SDS011;58277;47.316;18.908;2024-03-08T00:10:53;17.45;;;8.18;;
70707;SDS011;58277;47.316;18.908;2024-03-08T00:13:16;18.50;;;8.43;;
70707;SDS011;58277;47.316;18.908;2024-03-08T00:15:39;16.40;;;8.07;;
70707;SDS011;58277;47.316;18.908;2024-03-08T00:18:03;18.98;;;8.63;;
70707;SDS011;58277;47.316;18.908;2024-03-08T00:20:28;19.83;;;9.07;;
70707;SDS011;58277;47.316;18.908;2024-03-08T00:22:51;20.52;;;8.65;;
70707;SDS011;58277;47.316;18.908;2024-03-08T00:25:13;20.92;;;9.93;;
70707;SDS011;58277;47.316;18.908;2024-03-08T00:27:37;19.90;;;8.67;;
70707;SDS011;58277;47.316;18.908;2024-03-08T00:30:06;20.67;;;9.43;;
70707;SDS011;58277;47.316;18.908;2024-03-08T00:32:31;19.70;;;9.07;;
70707;SDS011;58277;47.316;18.908;2024-03-08T00:34:54;21.73;;;9.38;;
70707;SDS011;58277;47.316;18.908;2024-03-08T00:37:17;22.77;;;9.85;;
70707;SDS011;58277;47.316;18.908;2024-03-08T00:39:40;22.17;;;9.63;;
70707;SDS011;58277;47.316;18.908;2024-03-08T00:42:03;22.45;;;9.02;;
70707;SDS011;58277;47.316;18.908;2024-03-08T00:44:26;23.42;;;10.23;;
70707;SDS011;58277;47.316;18.908;2024-03-08T00:46:49;24.05;;;10.20;;
70707;SDS011;58277;47.316;18.908;2024-03-08T00:49:14;22.95;;;10.02;;
70707;SDS011;58277;47.316;18.908;2024-03-08T00:51:37;23.83;;;10.20;;
70707;SDS011;58277;47.316;18.908;2024-03-08T00:54:00;25.67;;;10.90;;
70707;SDS011;58277;47.316;18.908;2024-03-08T00:56:24;25.80;;;10.68;;
70707;SDS011;58277;47.316;18.908;2024-03-08T00:58:47;28.50;;;11.65;;
70707;SDS011;58277;47.316;18.908;2024-03-08T01:01:10;28.10;;;11.40;;
70707;SDS011;58277;47.316;18.908;2024-03-08T01:03:33;27.30;;;11.03;;
70707;SDS011;58277;47.316;18.908;2024-03-08T01:05:57;28.75;;;12.32;;
70707;SDS011;58277;47.316;18.908;2024-03-08T01:08:20;29.35;;;12.55;;
70707;SDS011;58277;47.316;18.908;2024-03-08T01:10:42;27.20;;;11.73;;
70707;SDS011;58277;47.316;18.908;2024-03-08T01:13:05;29.42;;;12.70;;
70707;SDS011;58277;47.316;18.908;2024-03-08T01:15:28;30.50;;;11.83;;
70707;SDS011;58277;47.316;18.908;2024-03-08T01:17:51;34.55;;;12.40;;
70707;SDS011;58277;47.316;18.908;2024-03-08T01:20:14;32.72;;;13.13;;
70707;SDS011;58277;47.316;18.908;2024-03-08T01:22:37;32.45;;;12.77;;
70707;SDS011;58277;47.316;18.908;2024-03-08T01:25:00;32.90;;;13.55;;
70707;SDS011;58277;47.316;18.908;2024-03-08T01:27:23;34.63;;;13.17;;
70707;SDS011;58277;47.316;18.908;2024-03-08T01:29:47;32.83;;;12.88;;
70707;SDS011;58277;47.316;18.908;2024-03-08T01:32:10;32.13;;;12.95;;
70707;SDS011;58277;47.316;18.908;2024-03-08T01:34:34;36.70;;;13.23;;
70707;SDS011;58277;47.316;18.908;2024-03-08T01:36:56;32.22;;;12.65;;
70707;SDS011;58277;47.316;18.908;2024-03-08T01:39:19;33.37;;;13.50;;
70707;SDS011;58277;47.316;18.908;2024-03-08T01:41:44;32.80;;;13.05;;
70707;SDS011;58277;47.316;18.908;2024-03-08T01:44:06;34.10;;;13.57;;
70707;SDS011;58277;47.316;18.908;2024-03-08T01:46:29;30.70;;;12.48;;
70707;SDS011;58277;47.316;18.908;2024-03-08T01:48:53;37.80;;;13.50;;
70707;SDS011;58277;47.316;18.908;2024-03-08T01:51:17;33.23;;;13.50;;
70707;SDS011;58277;47.316;18.908;2024-03-08T01:53:40;35.30;;;14.02;;
70707;SDS011;58277;47.316;18.908;2024-03-08T01:56:05;33.13;;;13.88;;
70707;SDS011;58277;47.316;18.908;2024-03-08T01:58:28;34.90;;;14.35;;
70707;SDS011;58277;47.316;18.908;2024-03-08T02:00:52;35.40;;;13.70;;
70707;SDS011;58277;47.316;18.908;2024-03-08T02:03:17;35.40;;;13.40;;
70707;SDS011;58277;47.316;18.908;2024-03-08T02:05:40;33.08;;;13.43;;
70707;SDS011;58277;47.316;18.908;2024-03-08T02:08:04;34.28;;;13.57;;
70707;SDS011;58277;47.316;18.908;2024-03-08T02:10:29;35.67;;;13.95;;
70707;SDS011;58277;47.316;18.908;2024-03-08T02:12:52;35.95;;;14.13;;
70707;SDS011;58277;47.316;18.908;2024-03-08T02:15:14;32.27;;;13.63;;
70707;SDS011;58277;47.316;18.908;2024-03-08T02:17:37;39.03;;;14.00;;
70707;SDS011;58277;47.316;18.908;2024-03-08T02:20:00;38.20;;;14.82;;
70707;SDS011;58277;47.316;18.908;2024-03-08T02:22:24;32.75;;;13.52;;
70707;SDS011;58277;47.316;18.908;2024-03-08T02:24:47;36.38;;;14.65;;
70707;SDS011;58277;47.316;18.908;2024-03-08T02:27:10;35.90;;;13.30;;
70707;SDS011;58277;47.316;18.908;2024-03-08T02:29:34;34.65;;;13.38;;
70707;SDS011;58277;47.316;18.908;2024-03-08T02:31:57;36.17;;;14.45;;
70707;SDS011;58277;47.316;18.908;2024-03-08T02:34:20;36.42;;;14.88;;
70707;SDS011;58277;47.316;18.908;2024-03-08T02:36:42;36.78;;;14.55;;
70707;SDS011;58277;47.316;18.908;2024-03-08T02:39:05;37.87;;;14.40;;
70707;SDS011;58277;47.316;18.908;2024-03-08T02:41:28;39.42;;;14.65;;
70707;SDS011;58277;47.316;18.908;2024-03-08T02:43:51;38.35;;;14.60;;
70707;SDS011;58277;47.316;18.908;2024-03-08T02:46:14;38.58;;;15.02;;
70707;SDS011;58277;47.316;18.908;2024-03-08T02:48:37;37.05;;;15.50;;
70707;SDS011;58277;47.316;18.908;2024-03-08T02:51:02;43.70;;;15.93;;
70707;SDS011;58277;47.316;18.908;2024-03-08T02:53:25;41.05;;;15.60;;
70707;SDS011;58277;47.316;18.908;2024-03-08T02:55:48;43.35;;;15.77;;
70707;SDS011;58277;47.316;18.908;2024-03-08T02:58:11;42.95;;;15.50;;
70707;SDS011;58277;47.316;18.908;2024-03-08T03:00:34;41.42;;;15.85;;
70707;SDS011;58277;47.316;18.908;2024-03-08T03:02:57;42.93;;;16.13;;
70707;SDS011;58277;47.316;18.908;2024-03-08T03:05:20;43.38;;;15.55;;
70707;SDS011;58277;47.316;18.908;2024-03-08T03:07:43;42.97;;;16.73;;
70707;SDS011;58277;47.316;18.908;2024-03-08T03:10:06;46.67;;;16.80;;
70707;SDS011;58277;47.316;18.908;2024-03-08T03:12:30;46.95;;;16.90;;
70707;SDS011;58277;47.316;18.908;2024-03-08T03:14:53;45.17;;;15.97;;
70707;SDS011;58277;47.316;18.908;2024-03-08T03:17:16;45.63;;;16.83;;
70707;SDS011;58277;47.316;18.908;2024-03-08T03:19:42;44.25;;;16.27;;
70707;SDS011;58277;47.316;18.908;2024-03-08T03:22:05;44.83;;;15.93;;
70707;SDS011;58277;47.316;18.908;2024-03-08T03:24:28;48.03;;;17.55;;
70707;SDS011;58277;47.316;18.908;2024-03-08T03:26:52;45.40;;;17.13;;
70707;SDS011;58277;47.316;18.908;2024-03-08T03:29:15;47.85;;;17.02;;
70707;SDS011;58277;47.316;18.908;2024-03-08T03:31:39;52.08;;;18.20;;
70707;SDS011;58277;47.316;18.908;2024-03-08T03:34:03;47.25;;;16.88;;
70707;SDS011;58277;47.316;18.908;2024-03-08T03:36:26;46.22;;;17.10;;
70707;SDS011;58277;47.316;18.908;2024-03-08T03:38:50;46.30;;;17.17;;
70707;SDS011;58277;47.316;18.908;2024-03-08T03:41:14;51.08;;;17.67;;
70707;SDS011;58277;47.316;18.908;2024-03-08T03:43:37;44.70;;;16.70;;
70707;SDS011;58277;47.316;18.908;2024-03-08T03:46:05;44.50;;;15.65;;
70707;SDS011;58277;47.316;18.908;2024-03-08T03:48:28;48.00;;;17.55;;
70707;SDS011;58277;47.316;18.908;2024-03-08T03:50:51;52.57;;;17.37;;
70707;SDS011;58277;47.316;18.908;2024-03-08T03:53:13;48.95;;;17.25;;
70707;SDS011;58277;47.316;18.908;2024-03-08T03:55:37;49.42;;;18.55;;
70707;SDS011;58277;47.316;18.908;2024-03-08T03:58:02;49.67;;;18.27;;
70707;SDS011;58277;47.316;18.908;2024-03-08T04:00:25;52.08;;;18.20;;
70707;SDS011;58277;47.316;18.908;2024-03-08T04:02:49;51.47;;;18.53;;
70707;SDS011;58277;47.316;18.908;2024-03-08T04:05:13;51.38;;;17.63;;
70707;SDS011;58277;47.316;18.908;2024-03-08T04:07:36;52.17;;;18.42;;
70707;SDS011;58277;47.316;18.908;2024-03-08T04:10:03;50.50;;;17.63;;
70707;SDS011;58277;47.316;18.908;2024-03-08T04:12:28;53.08;;;18.40;;
70707;SDS011;58277;47.316;18.908;2024-03-08T04:14:52;51.80;;;18.13;;
70707;SDS011;58277;47.316;18.908;2024-03-08T04:17:16;52.53;;;17.55;;
70707;SDS011;58277;47.316;18.908;2024-03-08T04:19:38;48.20;;;17.98;;
70707;SDS011;58277;47.316;18.908;2024-03-08T04:22:02;52.40;;;17.92;;
70707;SDS011;58277;47.316;18.908;2024-03-08T04:24:25;53.15;;;19.17;;
70707;SDS011;58277;47.316;18.908;2024-03-08T04:26:47;51.10;;;17.60;;
70707;SDS011;58277;47.316;18.908;2024-03-08T04:29:10;52.50;;;17.58;;
70707;SDS011;58277;47.316;18.908;2024-03-08T04:31:33;54.65;;;19.08;;
70707;SDS011;58277;47.316;18.908;2024-03-08T04:33:56;47.50;;;17.90;;
70707;SDS011;58277;47.316;18.908;2024-03-08T04:36:20;51.83;;;17.95;;
70707;SDS011;58277;47.316;18.908;2024-03-08T04:38:44;52.37;;;18.07;;
70707;SDS011;58277;47.316;18.908;2024-03-08T04:41:08;53.33;;;18.15;;
70707;SDS011;58277;47.316;18.908;2024-03-08T04:43:31;52.08;;;17.30;;
70707;SDS011;58277;47.316;18.908;2024-03-08T04:45:54;50.30;;;17.40;;
70707;SDS011;58277;47.316;18.908;2024-03-08T04:48:17;54.42;;;18.70;;
70707;SDS011;58277;47.316;18.908;2024-03-08T04:50:40;47.10;;;17.87;;
70707;SDS011;58277;47.316;18.908;2024-03-08T04:53:03;51.55;;;18.15;;
70707;SDS011;58277;47.316;18.908;2024-03-08T04:55:30;54.55;;;18.48;;
70707;SDS011;58277;47.316;18.908;2024-03-08T04:57:53;51.20;;;18.92;;
70707;SDS011;58277;47.316;18.908;2024-03-08T05:00:16;55.78;;;19.10;;
70707;SDS011;58277;47.316;18.908;2024-03-08T05:02:42;54.40;;;18.57;;
70707;SDS011;58277;47.316;18.908;2024-03-08T05:05:06;52.65;;;19.40;;
70707;SDS011;58277;47.316;18.908;2024-03-08T05:07:29;56.60;;;19.52;;
70707;SDS011;58277;47.316;18.908;2024-03-08T05:09:52;53.13;;;18.20;;
70707;SDS011;58277;47.316;18.908;2024-03-08T05:12:15;52.13;;;18.13;;
70707;SDS011;58277;47.316;18.908;2024-03-08T05:14:38;49.43;;;17.53;;
70707;SDS011;58277;47.316;18.908;2024-03-08T05:17:01;51.22;;;18.20;;
70707;SDS011;58277;47.316;18.908;2024-03-08T05:19:24;54.85;;;18.60;;
70707;SDS011;58277;47.316;18.908;2024-03-08T05:21:47;49.03;;;17.98;;
70707;SDS011;58277;47.316;18.908;2024-03-08T05:24:11;54.05;;;19.85;;
70707;SDS011;58277;47.316;18.908;2024-03-08T05:26:36;55.63;;;18.53;;
70707;SDS011;58277;47.316;18.908;2024-03-08T05:29:02;55.53;;;18.02;;
70707;SDS011;58277;47.316;18.908;2024-03-08T05:31:25;51.60;;;18.23;;
70707;SDS011;58277;47.316;18.908;2024-03-08T05:33:48;52.60;;;18.13;;
70707;SDS011;58277;47.316;18.908;2024-03-08T05:36:12;56.70;;;18.80;;
70707;SDS011;58277;47.316;18.908;2024-03-08T05:38:38;50.13;;;17.83;;
70707;SDS011;58277;47.316;18.908;2024-03-08T05:41:00;51.70;;;18.70;;
70707;SDS011;58277;47.316;18.908;2024-03-08T05:43:23;51.45;;;19.20;;
70707;SDS011;58277;47.316;18.908;2024-03-08T05:45:47;60.72;;;19.25;;
70707;SDS011;58277;47.316;18.908;2024-03-08T05:48:10;53.40;;;18.55;;
70707;SDS011;58277;47.316;18.908;2024-03-08T05:50:37;53.63;;;18.43;;
70707;SDS011;58277;47.316;18.908;2024-03-08T05:53:00;54.28;;;17.85;;
70707;SDS011;58277;47.316;18.908;2024-03-08T05:55:23;53.95;;;18.90;;
70707;SDS011;58277;47.316;18.908;2024-03-08T05:57:47;57.72;;;18.73;;
70707;SDS011;58277;47.316;18.908;2024-03-08T06:00:10;57.50;;;18.55;;
70707;SDS011;58277;47.316;18.908;2024-03-08T06:02:34;53.00;;;18.53;;
70707;SDS011;58277;47.316;18.908;2024-03-08T06:05:01;57.58;;;18.58;;
70707;SDS011;58277;47.316;18.908;2024-03-08T06:07:24;55.40;;;18.58;;
70707;SDS011;58277;47.316;18.908;2024-03-08T06:09:47;55.50;;;18.77;;
70707;SDS011;58277;47.316;18.908;2024-03-08T06:12:10;52.67;;;18.25;;
70707;SDS011;58277;47.316;18.908;2024-03-08T06:14:34;55.60;;;19.37;;
70707;SDS011;58277;47.316;18.908;2024-03-08T06:16:57;55.03;;;19.17;;
70707;SDS011;58277;47.316;18.908;2024-03-08T06:19:20;54.22;;;18.27;;
70707;SDS011;58277;47.316;18.908;2024-03-08T06:21:43;55.28;;;18.75;;
70707;SDS011;58277;47.316;18.908;2024-03-08T06:24:05;52.28;;;18.73;;
70707;SDS011;58277;47.316;18.908;2024-03-08T06:26:28;56.43;;;18.40;;
70707;SDS011;58277;47.316;18.908;2024-03-08T06:28:52;60.97;;;19.33;;
70707;SDS011;58277;47.316;18.908;2024-03-08T06:31:15;57.42;;;19.30;;
70707;SDS011;58277;47.316;18.908;2024-03-08T06:33:38;52.50;;;18.38;;
70707;SDS011;58277;47.316;18.908;2024-03-08T06:36:01;59.88;;;19.50;;
70707;SDS011;58277;47.316;18.908;2024-03-08T06:38:24;58.87;;;19.10;;
70707;SDS011;58277;47.316;18.908;2024-03-08T06:40:47;55.10;;;18.77;;
70707;SDS011;58277;47.316;18.908;2024-03-08T06:43:10;54.55;;;18.80;;
70707;SDS011;58277;47.316;18.908;2024-03-08T06:45:36;54.38;;;19.15;;
70707;SDS011;58277;47.316;18.908;2024-03-08T06:48:00;55.53;;;19.65;;
70707;SDS011;58277;47.316;18.908;2024-03-08T06:50:23;50.47;;;16.70;;
70707;SDS011;58277;47.316;18.908;2024-03-08T06:52:45;57.03;;;19.30;;
70707;SDS011;58277;47.316;18.908;2024-03-08T06:55:13;60.80;;;19.83;;
70707;SDS011;58277;47.316;18.908;2024-03-08T06:57:36;58.25;;;19.15;;
70707;SDS011;58277;47.316;18.908;2024-03-08T06:59:58;56.60;;;19.25;;
70707;SDS011;58277;47.316;18.908;2024-03-08T07:02:25;56.37;;;18.83;;
70707;SDS011;58277;47.316;18.908;2024-03-08T07:04:48;58.25;;;19.33;;
70707;SDS011;58277;47.316;18.908;2024-03-08T07:07:12;56.65;;;19.42;;
70707;SDS011;58277;47.316;18.908;2024-03-08T07:09:38;55.00;;;18.83;;
70707;SDS011;58277;47.316;18.908;2024-03-08T07:12:01;57.80;;;19.17;;
70707;SDS011;58277;47.316;18.908;2024-03-08T07:14:24;54.83;;;18.47;;
70707;SDS011;58277;47.316;18.908;2024-03-08T07:16:50;56.00;;;19.25;;
70707;SDS011;58277;47.316;18.908;2024-03-08T07:19:13;60.40;;;19.88;;
70707;SDS011;58277;47.316;18.908;2024-03-08T07:21:36;58.92;;;18.95;;
70707;SDS011;58277;47.316;18.908;2024-03-08T07:23:59;55.80;;;20.23;;
70707;SDS011;58277;47.316;18.908;2024-03-08T07:26:22;56.03;;;19.23;;
70707;SDS011;58277;47.316;18.908;2024-03-08T07:28:45;58.72;;;19.58;;
70707;SDS011;58277;47.316;18.908;2024-03-08T07:31:08;54.45;;;19.42;;
70707;SDS011;58277;47.316;18.908;2024-03-08T07:33:49;56.35;;;19.63;;
70707;SDS011;58277;47.316;18.908;2024-03-08T07:36:13;55.40;;;19.17;;
70707;SDS011;58277;47.316;18.908;2024-03-08T07:38:37;57.70;;;19.93;;
70707;SDS011;58277;47.316;18.908;2024-03-08T07:41:00;57.15;;;19.52;;
70707;SDS011;58277;47.316;18.908;2024-03-08T07:43:26;65.88;;;20.92;;
70707;SDS011;58277;47.316;18.908;2024-03-08T07:45:49;60.55;;;19.92;;
70707;SDS011;58277;47.316;18.908;2024-03-08T07:48:13;58.15;;;20.05;;
70707;SDS011;58277;47.316;18.908;2024-03-08T07:50:37;56.60;;;19.20;;
70707;SDS011;58277;47.316;18.908;2024-03-08T07:53:02;63.38;;;20.10;;
70707;SDS011;58277;47.316;18.908;2024-03-08T07:55:26;59.00;;;20.50;;
70707;SDS011;58277;47.316;18.908;2024-03-08T07:57:48;58.67;;;19.40;;
70707;SDS011;58277;47.316;18.908;2024-03-08T08:00:12;58.75;;;20.42;;
70707;SDS011;58277;47.316;18.908;2024-03-08T08:02:40;60.13;;;19.67;;
70707;SDS011;58277;47.316;18.908;2024-03-08T08:05:03;55.97;;;20.15;;
70707;SDS011;58277;47.316;18.908;2024-03-08T08:07:27;60.92;;;20.27;;
70707;SDS011;58277;47.316;18.908;2024-03-08T08:09:50;57.08;;;19.70;;
70707;SDS011;58277;47.316;18.908;2024-03-08T08:12:17;58.92;;;21.23;;
70707;SDS011;58277;47.316;18.908;2024-03-08T08:14:41;63.40;;;20.27;;
70707;SDS011;58277;47.316;18.908;2024-03-08T08:17:06;56.45;;;20.10;;
70707;SDS011;58277;47.316;18.908;2024-03-08T08:19:31;56.55;;;20.23;;
70707;SDS011;58277;47.316;18.908;2024-03-08T08:21:54;57.03;;;20.38;;
70707;SDS011;58277;47.316;18.908;2024-03-08T08:24:17;53.28;;;19.17;;
70707;SDS011;58277;47.316;18.908;2024-03-08T08:26:40;57.90;;;19.03;;
70707;SDS011;58277;47.316;18.908;2024-03-08T08:29:03;58.95;;;19.67;;
70707;SDS011;58277;47.316;18.908;2024-03-08T08:31:28;56.55;;;20.08;;
70707;SDS011;58277;47.316;18.908;2024-03-08T08:33:53;56.53;;;18.98;;
70707;SDS011;58277;47.316;18.908;2024-03-08T08:36:20;57.38;;;19.95;;
70707;SDS011;58277;47.316;18.908;2024-03-08T08:38:43;52.03;;;18.17;;
70707;SDS011;58277;47.316;18.908;2024-03-08T08:41:11;61.33;;;20.08;;
70707;SDS011;58277;47.316;18.908;2024-03-08T08:43:34;58.15;;;20.25;;
70707;SDS011;58277;47.316;18.908;2024-03-08T08:46:01;53.03;;;18.60;;
70707;SDS011;58277;47.316;18.908;2024-03-08T08:48:24;55.95;;;19.58;;
70707;SDS011;58277;47.316;18.908;2024-03-08T08:50:48;54.10;;;19.03;;
70707;SDS011;58277;47.316;18.908;2024-03-08T08:53:12;56.47;;;19.05;;
70707;SDS011;58277;47.316;18.908;2024-03-08T08:55:39;54.58;;;20.10;;
70707;SDS011;58277;47.316;18.908;2024-03-08T08:58:03;59.13;;;19.30;;
70707;SDS011;58277;47.316;18.908;2024-03-08T09:00:26;59.85;;;20.48;;
70707;SDS011;58277;47.316;18.908;2024-03-08T09:02:51;56.10;;;19.80;;
70707;SDS011;58277;47.316;18.908;2024-03-08T09:05:14;56.90;;;20.00;;
70707;SDS011;58277;47.316;18.908;2024-03-08T09:07:39;58.17;;;20.83;;
70707;SDS011;58277;47.316;18.908;2024-03-08T09:10:03;56.42;;;19.58;;
70707;SDS011;58277;47.316;18.908;2024-03-08T09:12:29;57.83;;;19.73;;
70707;SDS011;58277;47.316;18.908;2024-03-08T09:14:55;63.07;;;20.13;;
70707;SDS011;58277;47.316;18.908;2024-03-08T09:17:20;60.35;;;20.15;;
70707;SDS011;58277;47.316;18.908;2024-03-08T09:19:44;59.63;;;20.40;;
70707;SDS011;58277;47.316;18.908;2024-03-08T09:22:07;55.53;;;18.77;;
70707;SDS011;58277;47.316;18.908;2024-03-08T09:24:30;54.80;;;19.92;;
70707;SDS011;58277;47.316;18.908;2024-03-08T09:26:54;56.13;;;19.40;;
70707;SDS011;58277;47.316;18.908;2024-03-08T09:29:16;54.58;;;19.45;;
70707;SDS011;58277;47.316;18.908;2024-03-08T09:31:39;57.83;;;20.00;;
70707;SDS011;58277;47.316;18.908;2024-03-08T09:34:03;58.95;;;18.98;;
70707;SDS011;58277;47.316;18.908;2024-03-08T09:36:26;57.90;;;19.95;;
70707;SDS011;58277;47.316;18.908;2024-03-08T09:38:52;57.40;;;20.37;;
70707;SDS011;58277;47.316;18.908;2024-03-08T09:41:15;55.80;;;18.70;;
70707;SDS011;58277;47.316;18.908;2024-03-08T09:43:38;54.13;;;19.40;;
70707;SDS011;58277;47.316;18.908;2024-03-08T09:46:01;52.15;;;18.38;;
70707;SDS011;58277;47.316;18.908;2024-03-08T09:48:26;54.97;;;19.20;;
70707;SDS011;58277;47.316;18.908;2024-03-08T09:50:49;52.33;;;18.63;;
70707;SDS011;58277;47.316;18.908;2024-03-08T09:53:12;54.42;;;19.75;;
70707;SDS011;58277;47.316;18.908;2024-03-08T09:55:38;53.05;;;19.75;;
70707;SDS011;58277;47.316;18.908;2024-03-08T09:58:12;51.40;;;19.05;;
70707;SDS011;58277;47.316;18.908;2024-03-08T10:00:54;54.38;;;19.48;;
70707;SDS011;58277;47.316;18.908;2024-03-08T10:03:19;45.77;;;17.43;;
70707;SDS011;58277;47.316;18.908;2024-03-08T10:05:42;48.08;;;17.83;;
70707;SDS011;58277;47.316;18.908;2024-03-08T10:08:07;48.17;;;18.38;;
70707;SDS011;58277;47.316;18.908;2024-03-08T10:10:35;48.20;;;17.85;;
70707;SDS011;58277;47.316;18.908;2024-03-08T10:12:58;42.95;;;17.92;;
70707;SDS011;58277;47.316;18.908;2024-03-08T10:15:22;42.23;;;16.77;;
70707;SDS011;58277;47.316;18.908;2024-03-08T10:17:44;46.42;;;18.13;;
70707;SDS011;58277;47.316;18.908;2024-03-08T10:20:14;41.65;;;17.67;;
70707;SDS011;58277;47.316;18.908;2024-03-08T10:22:40;47.47;;;17.67;;
70707;SDS011;58277;47.316;18.908;2024-03-08T10:25:19;44.45;;;17.30;;
70707;SDS011;58277;47.316;18.908;2024-03-08T10:27:42;45.73;;;17.73;;
70707;SDS011;58277;47.316;18.908;2024-03-08T10:30:06;50.85;;;18.70;;
70707;SDS011;58277;47.316;18.908;2024-03-08T10:32:37;36.83;;;15.07;;
70707;SDS011;58277;47.316;18.908;2024-03-08T10:35:00;37.33;;;15.57;;
70707;SDS011;58277;47.316;18.908;2024-03-08T10:37:23;37.65;;;15.68;;
70707;SDS011;58277;47.316;18.908;2024-03-08T10:39:50;35.83;;;15.30;;
70707;SDS011;58277;47.316;18.908;2024-03-08T10:42:33;38.95;;;15.98;;
70707;SDS011;58277;47.316;18.908;2024-03-08T10:45:05;36.65;;;15.20;;
70707;SDS011;58277;47.316;18.908;2024-03-08T10:47:35;33.42;;;14.50;;
70707;SDS011;58277;47.316;18.908;2024-03-08T10:52:41;33.77;;;14.57;;
70707;SDS011;58277;47.316;18.908;2024-03-08T10:55:05;34.20;;;14.60;;
70707;SDS011;58277;47.316;18.908;2024-03-08T10:57:35;30.67;;;13.95;;
70707;SDS011;58277;47.316;18.908;2024-03-08T11:00:03;33.70;;;14.43;;
70707;SDS011;58277;47.316;18.908;2024-03-08T11:02:35;29.10;;;13.20;;
70707;SDS011;58277;47.316;18.908;2024-03-08T11:04:57;28.87;;;12.30;;
70707;SDS011;58277;47.316;18.908;2024-03-08T11:07:23;24.85;;;11.27;;
70707;SDS011;58277;47.316;18.908;2024-03-08T11:09:50;25.20;;;11.60;;
70707;SDS011;58277;47.316;18.908;2024-03-08T11:12:27;25.20;;;10.98;;
70707;SDS011;58277;47.316;18.908;2024-03-08T11:15:00;23.30;;;10.73;;
70707;SDS011;58277;47.316;18.908;2024-03-08T11:19:52;23.10;;;10.10;;
70707;SDS011;58277;47.316;18.908;2024-03-08T11:22:22;21.10;;;10.52;;
70707;SDS011;58277;47.316;18.908;2024-03-08T11:24:49;20.13;;;10.13;;
70707;SDS011;58277;47.316;18.908;2024-03-08T11:27:13;21.30;;;10.45;;
70707;SDS011;58277;47.316;18.908;2024-03-08T11:29:37;20.20;;;10.10;;
70707;SDS011;58277;47.316;18.908;2024-03-08T11:34:35;18.67;;;9.77;;
70707;SDS011;58277;47.316;18.908;2024-03-08T11:36:59;18.35;;;9.18;;
70707;SDS011;58277;47.316;18.908;2024-03-08T11:39:22;20.02;;;10.55;;
70707;SDS011;58277;47.316;18.908;2024-03-08T11:41:46;21.03;;;9.60;;
70707;SDS011;58277;47.316;18.908;2024-03-08T11:44:09;18.00;;;8.60;;
70707;SDS011;58277;47.316;18.908;2024-03-08T11:46:34;19.05;;;9.00;;
70707;SDS011;58277;47.316;18.908;2024-03-08T11:48:57;18.02;;;9.10;;
70707;SDS011;58277;47.316;18.908;2024-03-08T11:51:20;17.02;;;8.90;;
70707;SDS011;58277;47.316;18.908;2024-03-08T11:53:43;17.90;;;8.87;;
70707;SDS011;58277;47.316;18.908;2024-03-08T11:56:10;16.42;;;8.65;;
70707;SDS011;58277;47.316;18.908;2024-03-08T11:58:35;17.13;;;9.20;;
70707;SDS011;58277;47.316;18.908;2024-03-08T12:01:04;17.17;;;9.18;;
70707;SDS011;58277;47.316;18.908;2024-03-08T12:03:39;19.45;;;10.40;;
70707;SDS011;58277;47.316;18.908;2024-03-08T12:06:05;20.63;;;10.40;;
70707;SDS011;58277;47.316;18.908;2024-03-08T12:08:31;20.58;;;10.43;;
70707;SDS011;58277;47.316;18.908;2024-03-08T12:10:54;21.08;;;10.10;;
70707;SDS011;58277;47.316;18.908;2024-03-08T12:13:22;23.88;;;11.25;;
70707;SDS011;58277;47.316;18.908;2024-03-08T12:15:46;29.13;;;12.77;;
70707;SDS011;58277;47.316;18.908;2024-03-08T12:18:09;25.57;;;11.57;;
70707;SDS011;58277;47.316;18.908;2024-03-08T12:20:35;24.50;;;11.32;;
70707;SDS011;58277;47.316;18.908;2024-03-08T12:22:58;25.38;;;12.52;;
70707;SDS011;58277;47.316;18.908;2024-03-08T12:25:22;26.13;;;13.10;;
70707;SDS011;58277;47.316;18.908;2024-03-08T12:27:48;26.75;;;13.32;;
70707;SDS011;58277;47.316;18.908;2024-03-08T12:30:16;25.23;;;13.27;;
70707;SDS011;58277;47.316;18.908;2024-03-08T12:32:53;28.20;;;12.85;;
70707;SDS011;58277;47.316;18.908;2024-03-08T12:35:22;27.38;;;13.13;;
70707;SDS011;58277;47.316;18.908;2024-03-08T12:37:56;25.77;;;13.23;;
70707;SDS011;58277;47.316;18.908;2024-03-08T12:40:26;26.25;;;13.10;;
70707;SDS011;58277;47.316;18.908;2024-03-08T12:42:51;25.20;;;12.33;;
70707;SDS011;58277;47.316;18.908;2024-03-08T12:45:14;26.30;;;12.90;;
70707;SDS011;58277;47.316;18.908;2024-03-08T12:47:37;25.83;;;12.70;;
70707;SDS011;58277;47.316;18.908;2024-03-08T12:50:00;25.48;;;12.65;;
70707;SDS011;58277;47.316;18.908;2024-03-08T12:52:23;25.92;;;13.15;;
70707;SDS011;58277;47.316;18.908;2024-03-08T12:54:46;26.93;;;12.73;;
70707;SDS011;58277;47.316;18.908;2024-03-08T12:57:09;24.17;;;12.15;;
70707;SDS011;58277;47.316;18.908;2024-03-08T12:59:32;24.52;;;12.85;;
70707;SDS011;58277;47.316;18.908;2024-03-08T13:01:55;24.40;;;12.05;;
70707;SDS011;58277;47.316;18.908;2024-03-08T13:04:20;23.67;;;11.95;;
70707;SDS011;58277;47.316;18.908;2024-03-08T13:06:44;25.83;;;11.87;;
70707;SDS011;58277;47.316;18.908;2024-03-08T13:09:11;22.75;;;11.10;;
70707;SDS011;58277;47.316;18.908;2024-03-08T13:11:34;23.27;;;11.18;;
70707;SDS011;58277;47.316;18.908;2024-03-08T13:13:59;21.88;;;11.23;;
70707;SDS011;58277;47.316;18.908;2024-03-08T13:16:22;22.33;;;10.80;;
70707;SDS011;58277;47.316;18.908;2024-03-08T13:18:45;22.37;;;10.97;;
70707;SDS011;58277;47.316;18.908;2024-03-08T13:21:15;22.58;;;11.30;;
70707;SDS011;58277;47.316;18.908;2024-03-08T13:23:42;22.23;;;11.05;;
70707;SDS011;58277;47.316;18.908;2024-03-08T13:26:08;22.08;;;10.57;;
70707;SDS011;58277;47.316;18.908;2024-03-08T13:28:34;23.88;;;11.43;;
70707;SDS011;58277;47.316;18.908;2024-03-08T13:30:59;22.50;;;11.03;;
70707;SDS011;58277;47.316;18.908;2024-03-08T13:33:25;24.73;;;11.23;;
70707;SDS011;58277;47.316;18.908;2024-03-08T13:35:49;22.25;;;11.02;;
70707;SDS011;58277;47.316;18.908;2024-03-08T13:38:13;23.77;;;11.10;;
70707;SDS011;58277;47.316;18.908;2024-03-08T13:40:36;22.45;;;10.63;;
70707;SDS011;58277;47.316;18.908;2024-03-08T13:42:59;24.07;;;11.20;;
70707;SDS011;58277;47.316;18.908;2024-03-08T13:45:23;21.85;;;10.90;;
70707;SDS011;58277;47.316;18.908;2024-03-08T13:47:47;21.98;;;10.82;;
70707;SDS011;58277;47.316;18.908;2024-03-08T13:50:12;21.83;;;10.88;;
70707;SDS011;58277;47.316;18.908;2024-03-08T13:52:35;21.45;;;10.75;;
70707;SDS011;58277;47.316;18.908;2024-03-08T13:54:57;22.20;;;11.10;;
70707;SDS011;58277;47.316;18.908;2024-03-08T13:57:20;23.40;;;11.43;;
70707;SDS011;58277;47.316;18.908;2024-03-08T13:59:44;22.92;;;11.18;;
70707;SDS011;58277;47.316;18.908;2024-03-08T14:02:07;23.27;;;11.35;;